sensor_id;sensor_type;location;lat;lon;timestamp;temperature;humidity
62476;DHT22;50739;45.670;11.936;2022-08-06T00:00:59;29.07;57.94
62476;DHT22;50739;45.670;11.936;2022-08-06T00:06:01;29.09;58.17
62476;DHT22;50739;45.670;11.936;2022-08-06T00:11:03;28.65;59.43
62476;DHT22;50739;45.670;11.936;2022-08-06T00:16:06;28.64;59.48
62476;DHT22;50739;45.670;11.936;2022-08-06T00:21:08;28.41;59.45
62476;DHT22;50739;45.670;11.936;2022-08-06T00:26:10;28.41;59.40
62476;DHT22;50739;45.670;11.936;2022-08-06T00:31:13;28.60;59.42
62476;DHT22;50739;45.670;11.936;2022-08-06T00:36:15;28.48;59.86
62476;DHT22;50739;45.670;11.936;2022-08-06T00:41:18;28.43;60.21
62476;DHT22;50739;45.670;11.936;2022-08-06T00:46:22;28.37;60.35
62476;DHT22;50739;45.670;11.936;2022-08-06T00:51:24;28.21;60.98
62476;DHT22;50739;45.670;11.936;2022-08-06T00:56:25;28.47;60.34
62476;DHT22;50739;45.670;11.936;2022-08-06T01:01:29;28.21;61.21
62476;DHT22;50739;45.670;11.936;2022-08-06T01:06:31;28.12;61.20
62476;DHT22;50739;45.670;11.936;2022-08-06T01:11:33;27.97;62.02
62476;DHT22;50739;45.670;11.936;2022-08-06T01:16:39;28.10;61.88
62476;DHT22;50739;45.670;11.936;2022-08-06T01:21:50;28.09;61.95
62476;DHT22;50739;45.670;11.936;2022-08-06T01:26:59;27.81;62.75
62476;DHT22;50739;45.670;11.936;2022-08-06T01:32:05;27.85;62.95
62476;DHT22;50739;45.670;11.936;2022-08-06T01:37:13;27.73;62.84
62476;DHT22;50739;45.670;11.936;2022-08-06T01:42:17;27.62;63.61
62476;DHT22;50739;45.670;11.936;2022-08-06T01:47:23;27.45;62.90
62476;DHT22;50739;45.670;11.936;2022-08-06T01:52:27;27.38;63.59
62476;DHT22;50739;45.670;11.936;2022-08-06T01:57:32;27.26;64.22
62476;DHT22;50739;45.670;11.936;2022-08-06T02:02:37;27.21;64.43
62476;DHT22;50739;45.670;11.936;2022-08-06T02:07:40;27.00;65.96
62476;DHT22;50739;45.670;11.936;2022-08-06T02:12:44;27.00;65.58
62476;DHT22;50739;45.670;11.936;2022-08-06T02:17:50;27.13;65.34
62476;DHT22;50739;45.670;11.936;2022-08-06T02:22:53;27.03;65.33
62476;DHT22;50739;45.670;11.936;2022-08-06T02:27:57;27.06;64.46
62476;DHT22;50739;45.670;11.936;2022-08-06T02:33:03;27.07;64.34
62476;DHT22;50739;45.670;11.936;2022-08-06T02:38:09;27.28;64.03
62476;DHT22;50739;45.670;11.936;2022-08-06T02:43:15;27.07;64.85
62476;DHT22;50739;45.670;11.936;2022-08-06T02:48:23;27.03;64.55
62476;DHT22;50739;45.670;11.936;2022-08-06T02:53:34;27.17;64.45
62476;DHT22;50739;45.670;11.936;2022-08-06T02:58:40;27.27;64.62
62476;DHT22;50739;45.670;11.936;2022-08-06T03:03:45;26.97;65.51
62476;DHT22;50739;45.670;11.936;2022-08-06T03:08:51;27.04;65.29
62476;DHT22;50739;45.670;11.936;2022-08-06T03:13:54;26.96;65.20
62476;DHT22;50739;45.670;11.936;2022-08-06T03:19:00;27.14;64.84
62476;DHT22;50739;45.670;11.936;2022-08-06T03:24:03;26.86;66.39
62476;DHT22;50739;45.670;11.936;2022-08-06T03:29:05;26.51;67.77
62476;DHT22;50739;45.670;11.936;2022-08-06T03:34:10;26.34;68.83
62476;DHT22;50739;45.670;11.936;2022-08-06T03:39:13;26.02;70.06
62476;DHT22;50739;45.670;11.936;2022-08-06T03:44:15;25.96;70.74
62476;DHT22;50739;45.670;11.936;2022-08-06T03:49:23;25.86;70.75
62476;DHT22;50739;45.670;11.936;2022-08-06T03:54:27;25.94;70.13
62476;DHT22;50739;45.670;11.936;2022-08-06T03:59:30;26.05;69.80
62476;DHT22;50739;45.670;11.936;2022-08-06T04:04:35;25.98;69.84
62476;DHT22;50739;45.670;11.936;2022-08-06T04:09:38;26.01;69.48
62476;DHT22;50739;45.670;11.936;2022-08-06T04:14:40;25.84;69.94
62476;DHT22;50739;45.670;11.936;2022-08-06T04:19:44;25.97;69.64
62476;DHT22;50739;45.670;11.936;2022-08-06T04:24:47;26.01;69.54
62476;DHT22;50739;45.670;11.936;2022-08-06T04:29:49;26.02;69.17
62476;DHT22;50739;45.670;11.936;2022-08-06T04:34:54;26.02;69.16
62476;DHT22;50739;45.670;11.936;2022-08-06T04:39:57;26.13;68.70
62476;DHT22;50739;45.670;11.936;2022-08-06T04:45:00;26.24;68.78
62476;DHT22;50739;45.670;11.936;2022-08-06T04:50:04;26.21;68.09
62476;DHT22;50739;45.670;11.936;2022-08-06T04:55:07;26.25;68.14
62476;DHT22;50739;45.670;11.936;2022-08-06T05:00:10;26.42;67.95
62476;DHT22;50739;45.670;11.936;2022-08-06T05:05:15;26.69;67.48
62476;DHT22;50739;45.670;11.936;2022-08-06T05:10:19;26.72;66.97
62476;DHT22;50739;45.670;11.936;2022-08-06T05:15:24;26.72;66.31
62476;DHT22;50739;45.670;11.936;2022-08-06T05:20:39;26.84;65.44
62476;DHT22;50739;45.670;11.936;2022-08-06T05:25:42;27.00;64.99
62476;DHT22;50739;45.670;11.936;2022-08-06T05:30:45;27.15;64.64
62476;DHT22;50739;45.670;11.936;2022-08-06T05:35:48;27.26;62.50
62476;DHT22;50739;45.670;11.936;2022-08-06T05:40:50;27.38;61.17
62476;DHT22;50739;45.670;11.936;2022-08-06T05:45:54;27.41;61.17
62476;DHT22;50739;45.670;11.936;2022-08-06T05:51:05;27.45;60.86
62476;DHT22;50739;45.670;11.936;2022-08-06T05:56:14;27.62;59.68
62476;DHT22;50739;45.670;11.936;2022-08-06T06:01:17;27.73;59.99
62476;DHT22;50739;45.670;11.936;2022-08-06T06:06:21;27.85;60.62
62476;DHT22;50739;45.670;11.936;2022-08-06T06:11:24;27.85;59.22
62476;DHT22;50739;45.670;11.936;2022-08-06T06:16:29;27.96;59.35
62476;DHT22;50739;45.670;11.936;2022-08-06T06:21:38;28.13;59.53
62476;DHT22;50739;45.670;11.936;2022-08-06T06:26:51;28.30;59.63
62476;DHT22;50739;45.670;11.936;2022-08-06T06:32:01;28.57;59.24
62476;DHT22;50739;45.670;11.936;2022-08-06T06:37:11;28.71;58.53
62476;DHT22;50739;45.670;11.936;2022-08-06T06:42:17;28.94;57.27
62476;DHT22;50739;45.670;11.936;2022-08-06T06:47:25;29.19;57.33
62476;DHT22;50739;45.670;11.936;2022-08-06T06:52:34;29.46;54.72
62476;DHT22;50739;45.670;11.936;2022-08-06T06:57:42;29.62;54.23
62476;DHT22;50739;45.670;11.936;2022-08-06T07:02:47;29.81;53.70
62476;DHT22;50739;45.670;11.936;2022-08-06T07:07:51;30.01;48.47
62476;DHT22;50739;45.670;11.936;2022-08-06T07:12:53;30.19;48.43
62476;DHT22;50739;45.670;11.936;2022-08-06T07:17:57;30.39;47.57
62476;DHT22;50739;45.670;11.936;2022-08-06T07:23:04;30.57;48.32
62476;DHT22;50739;45.670;11.936;2022-08-06T07:28:08;30.85;46.63
62476;DHT22;50739;45.670;11.936;2022-08-06T07:33:12;30.99;48.67
62476;DHT22;50739;45.670;11.936;2022-08-06T07:38:16;31.14;48.20
62476;DHT22;50739;45.670;11.936;2022-08-06T07:43:21;31.15;47.54
62476;DHT22;50739;45.670;11.936;2022-08-06T07:48:30;31.33;47.16
62476;DHT22;50739;45.670;11.936;2022-08-06T07:53:35;31.73;46.68
62476;DHT22;50739;45.670;11.936;2022-08-06T07:58:37;31.74;46.00
62476;DHT22;50739;45.670;11.936;2022-08-06T08:03:41;31.84;45.97
62476;DHT22;50739;45.670;11.936;2022-08-06T08:09:03;32.00;44.71
62476;DHT22;50739;45.670;11.936;2022-08-06T08:14:08;32.02;44.55
62476;DHT22;50739;45.670;11.936;2022-08-06T08:19:25;32.38;43.92
62476;DHT22;50739;45.670;11.936;2022-08-06T08:24:33;32.63;44.15
62476;DHT22;50739;45.670;11.936;2022-08-06T08:29:36;32.79;43.66
62476;DHT22;50739;45.670;11.936;2022-08-06T08:34:38;32.80;43.08
62476;DHT22;50739;45.670;11.936;2022-08-06T08:39:42;33.02;43.31
62476;DHT22;50739;45.670;11.936;2022-08-06T08:44:44;33.25;41.56
62476;DHT22;50739;45.670;11.936;2022-08-06T08:49:52;33.32;41.86
62476;DHT22;50739;45.670;11.936;2022-08-06T08:55:01;33.40;42.03
62476;DHT22;50739;45.670;11.936;2022-08-06T09:00:04;33.44;42.67
62476;DHT22;50739;45.670;11.936;2022-08-06T09:05:09;33.72;40.81
62476;DHT22;50739;45.670;11.936;2022-08-06T09:10:13;34.16;38.38
62476;DHT22;50739;45.670;11.936;2022-08-06T09:15:15;33.92;39.34
62476;DHT22;50739;45.670;11.936;2022-08-06T09:20:21;33.92;38.83
62476;DHT22;50739;45.670;11.936;2022-08-06T09:25:43;33.97;37.89
62476;DHT22;50739;45.670;11.936;2022-08-06T09:30:57;34.00;38.06
62476;DHT22;50739;45.670;11.936;2022-08-06T09:36:00;34.14;38.91
62476;DHT22;50739;45.670;11.936;2022-08-06T09:41:06;34.67;38.46
62476;DHT22;50739;45.670;11.936;2022-08-06T09:46:08;34.85;38.59
62476;DHT22;50739;45.670;11.936;2022-08-06T09:51:21;34.96;39.25
62476;DHT22;50739;45.670;11.936;2022-08-06T09:56:25;35.16;37.46
62476;DHT22;50739;45.670;11.936;2022-08-06T10:01:28;35.22;38.08
62476;DHT22;50739;45.670;11.936;2022-08-06T10:06:30;35.50;37.20
62476;DHT22;50739;45.670;11.936;2022-08-06T10:11:35;35.55;35.96
62476;DHT22;50739;45.670;11.936;2022-08-06T10:16:38;35.69;36.75
62476;DHT22;50739;45.670;11.936;2022-08-06T10:21:40;35.87;36.12
62476;DHT22;50739;45.670;11.936;2022-08-06T10:26:46;35.81;36.59
62476;DHT22;50739;45.670;11.936;2022-08-06T10:31:52;35.81;36.35
62476;DHT22;50739;45.670;11.936;2022-08-06T10:36:58;36.04;36.34
62476;DHT22;50739;45.670;11.936;2022-08-06T10:42:05;36.25;36.27
62476;DHT22;50739;45.670;11.936;2022-08-06T10:47:07;36.29;36.06
62476;DHT22;50739;45.670;11.936;2022-08-06T10:52:09;36.33;35.88
62476;DHT22;50739;45.670;11.936;2022-08-06T10:57:13;36.33;35.57
62476;DHT22;50739;45.670;11.936;2022-08-06T11:02:25;36.56;35.66
62476;DHT22;50739;45.670;11.936;2022-08-06T11:07:49;36.70;35.42
62476;DHT22;50739;45.670;11.936;2022-08-06T11:12:57;36.80;35.31
62476;DHT22;50739;45.670;11.936;2022-08-06T11:18:04;36.87;34.58
62476;DHT22;50739;45.670;11.936;2022-08-06T11:23:25;36.77;35.29
62476;DHT22;50739;45.670;11.936;2022-08-06T11:29:00;36.92;35.57
62476;DHT22;50739;45.670;11.936;2022-08-06T11:34:04;37.22;35.74
62476;DHT22;50739;45.670;11.936;2022-08-06T11:39:06;37.35;35.20
62476;DHT22;50739;45.670;11.936;2022-08-06T11:44:09;37.34;35.00
62476;DHT22;50739;45.670;11.936;2022-08-06T11:49:19;37.38;35.68
62476;DHT22;50739;45.670;11.936;2022-08-06T11:54:22;37.72;34.53
62476;DHT22;50739;45.670;11.936;2022-08-06T11:59:26;37.74;34.71
62476;DHT22;50739;45.670;11.936;2022-08-06T12:04:44;38.01;34.42
62476;DHT22;50739;45.670;11.936;2022-08-06T12:09:58;38.34;33.66
62476;DHT22;50739;45.670;11.936;2022-08-06T12:15:03;38.35;33.65
62476;DHT22;50739;45.670;11.936;2022-08-06T12:20:08;38.52;34.72
62476;DHT22;50739;45.670;11.936;2022-08-06T12:25:10;38.66;34.01
62476;DHT22;50739;45.670;11.936;2022-08-06T12:30:16;38.56;33.80
62476;DHT22;50739;45.670;11.936;2022-08-06T12:35:17;38.91;33.28
62476;DHT22;50739;45.670;11.936;2022-08-06T12:40:20;39.21;32.73
62476;DHT22;50739;45.670;11.936;2022-08-06T12:45:31;39.71;32.37
62476;DHT22;50739;45.670;11.936;2022-08-06T12:50:35;39.19;33.27
62476;DHT22;50739;45.670;11.936;2022-08-06T12:55:42;38.42;33.82
62476;DHT22;50739;45.670;11.936;2022-08-06T13:00:48;38.25;33.90
62476;DHT22;50739;45.670;11.936;2022-08-06T13:05:51;39.56;32.26
62476;DHT22;50739;45.670;11.936;2022-08-06T13:10:55;38.59;33.22
62476;DHT22;50739;45.670;11.936;2022-08-06T13:16:04;38.14;33.87
62476;DHT22;50739;45.670;11.936;2022-08-06T13:21:16;39.76;32.14
62476;DHT22;50739;45.670;11.936;2022-08-06T13:26:20;40.91;28.99
62476;DHT22;50739;45.670;11.936;2022-08-06T13:31:23;39.36;31.59
62476;DHT22;50739;45.670;11.936;2022-08-06T13:36:26;37.35;34.92
62476;DHT22;50739;45.670;11.936;2022-08-06T13:41:28;36.26;36.87
62476;DHT22;50739;45.670;11.936;2022-08-06T13:46:42;35.81;37.27
62476;DHT22;50739;45.670;11.936;2022-08-06T13:51:44;35.36;37.28
62476;DHT22;50739;45.670;11.936;2022-08-06T13:56:49;35.10;37.53
62476;DHT22;50739;45.670;11.936;2022-08-06T14:01:52;34.81;38.62
62476;DHT22;50739;45.670;11.936;2022-08-06T14:06:56;34.54;39.07
62476;DHT22;50739;45.670;11.936;2022-08-06T14:11:59;34.44;39.38
62476;DHT22;50739;45.670;11.936;2022-08-06T14:17:02;34.13;39.81
62476;DHT22;50739;45.670;11.936;2022-08-06T14:22:06;32.31;55.55
62476;DHT22;50739;45.670;11.936;2022-08-06T14:27:09;29.67;64.00
62476;DHT22;50739;45.670;11.936;2022-08-06T14:32:15;28.03;70.13
62476;DHT22;50739;45.670;11.936;2022-08-06T14:37:17;27.75;69.88
62476;DHT22;50739;45.670;11.936;2022-08-06T14:42:18;27.75;71.50
62476;DHT22;50739;45.670;11.936;2022-08-06T14:47:39;27.89;72.44
62476;DHT22;50739;45.670;11.936;2022-08-06T14:52:56;28.00;74.05
62476;DHT22;50739;45.670;11.936;2022-08-06T14:57:57;28.17;75.93
62476;DHT22;50739;45.670;11.936;2022-08-06T15:03:01;28.10;70.99
62476;DHT22;50739;45.670;11.936;2022-08-06T15:08:03;27.79;70.31
62476;DHT22;50739;45.670;11.936;2022-08-06T15:13:08;27.15;67.88
62476;DHT22;50739;45.670;11.936;2022-08-06T15:18:12;26.87;77.71
62476;DHT22;50739;45.670;11.936;2022-08-06T15:23:15;27.44;70.75
62476;DHT22;50739;45.670;11.936;2022-08-06T15:28:17;27.70;69.07
62476;DHT22;50739;45.670;11.936;2022-08-06T15:33:20;28.33;64.74
62476;DHT22;50739;45.670;11.936;2022-08-06T15:38:23;28.44;64.79
62476;DHT22;50739;45.670;11.936;2022-08-06T15:43:26;28.57;62.35
62476;DHT22;50739;45.670;11.936;2022-08-06T15:48:30;28.68;63.21
62476;DHT22;50739;45.670;11.936;2022-08-06T15:53:32;28.62;64.97
62476;DHT22;50739;45.670;11.936;2022-08-06T15:58:33;28.76;62.55
62476;DHT22;50739;45.670;11.936;2022-08-06T16:03:36;28.79;63.00
62476;DHT22;50739;45.670;11.936;2022-08-06T16:08:38;28.69;62.29
62476;DHT22;50739;45.670;11.936;2022-08-06T16:13:40;28.40;61.65
62476;DHT22;50739;45.670;11.936;2022-08-06T16:18:44;28.27;61.58
62476;DHT22;50739;45.670;11.936;2022-08-06T16:23:46;28.24;59.46
62476;DHT22;50739;45.670;11.936;2022-08-06T16:28:48;28.28;58.43
62476;DHT22;50739;45.670;11.936;2022-08-06T16:33:51;28.39;57.88
62476;DHT22;50739;45.670;11.936;2022-08-06T16:38:53;28.27;58.93
62476;DHT22;50739;45.670;11.936;2022-08-06T16:43:54;28.17;58.83
62476;DHT22;50739;45.670;11.936;2022-08-06T16:48:58;28.04;59.36
62476;DHT22;50739;45.670;11.936;2022-08-06T16:53:59;28.17;58.38
62476;DHT22;50739;45.670;11.936;2022-08-06T16:59:01;28.10;58.86
62476;DHT22;50739;45.670;11.936;2022-08-06T17:04:05;28.18;58.76
62476;DHT22;50739;45.670;11.936;2022-08-06T17:09:07;28.06;58.65
62476;DHT22;50739;45.670;11.936;2022-08-06T17:14:08;28.23;56.43
62476;DHT22;50739;45.670;11.936;2022-08-06T17:19:12;28.04;56.74
62476;DHT22;50739;45.670;11.936;2022-08-06T17:24:13;27.99;56.46
62476;DHT22;50739;45.670;11.936;2022-08-06T17:29:15;27.99;56.15
62476;DHT22;50739;45.670;11.936;2022-08-06T17:34:18;27.97;56.60
62476;DHT22;50739;45.670;11.936;2022-08-06T17:39:20;27.86;56.78
62476;DHT22;50739;45.670;11.936;2022-08-06T17:44:22;27.81;56.03
62476;DHT22;50739;45.670;11.936;2022-08-06T17:49:25;27.84;55.80
62476;DHT22;50739;45.670;11.936;2022-08-06T17:54:27;27.78;56.10
62476;DHT22;50739;45.670;11.936;2022-08-06T17:59:29;27.70;56.82
62476;DHT22;50739;45.670;11.936;2022-08-06T18:04:33;27.66;56.83
62476;DHT22;50739;45.670;11.936;2022-08-06T18:09:34;27.54;57.44
62476;DHT22;50739;45.670;11.936;2022-08-06T18:14:36;27.52;57.55
62476;DHT22;50739;45.670;11.936;2022-08-06T18:19:42;27.51;56.82
62476;DHT22;50739;45.670;11.936;2022-08-06T18:24:44;27.47;57.68
62476;DHT22;50739;45.670;11.936;2022-08-06T18:29:45;27.42;57.44
62476;DHT22;50739;45.670;11.936;2022-08-06T18:34:49;27.34;58.27
62476;DHT22;50739;45.670;11.936;2022-08-06T18:39:51;27.34;58.79
62476;DHT22;50739;45.670;11.936;2022-08-06T18:44:53;27.28;58.49
62476;DHT22;50739;45.670;11.936;2022-08-06T18:49:56;27.30;58.44
62476;DHT22;50739;45.670;11.936;2022-08-06T18:54:59;27.34;58.99
62476;DHT22;50739;45.670;11.936;2022-08-06T19:00:04;27.38;59.04
62476;DHT22;50739;45.670;11.936;2022-08-06T19:05:07;27.42;58.35
62476;DHT22;50739;45.670;11.936;2022-08-06T19:10:09;27.49;58.77
62476;DHT22;50739;45.670;11.936;2022-08-06T19:15:11;27.57;58.35
62476;DHT22;50739;45.670;11.936;2022-08-06T19:20:14;27.51;59.00
62476;DHT22;50739;45.670;11.936;2022-08-06T19:25:18;27.58;58.75
62476;DHT22;50739;45.670;11.936;2022-08-06T19:30:21;27.61;57.90
62476;DHT22;50739;45.670;11.936;2022-08-06T19:35:25;27.47;60.52
62476;DHT22;50739;45.670;11.936;2022-08-06T19:40:28;27.26;60.63
62476;DHT22;50739;45.670;11.936;2022-08-06T19:45:49;27.27;60.29
62476;DHT22;50739;45.670;11.936;2022-08-06T19:50:53;27.23;59.32
62476;DHT22;50739;45.670;11.936;2022-08-06T19:55:55;27.24;59.09
62476;DHT22;50739;45.670;11.936;2022-08-06T20:00:57;26.82;61.51
62476;DHT22;50739;45.670;11.936;2022-08-06T20:06:10;26.46;63.62
62476;DHT22;50739;45.670;11.936;2022-08-06T20:11:12;26.14;66.07
62476;DHT22;50739;45.670;11.936;2022-08-06T20:16:15;25.84;69.85
62476;DHT22;50739;45.670;11.936;2022-08-06T20:21:19;25.77;72.89
62476;DHT22;50739;45.670;11.936;2022-08-06T20:26:21;25.63;73.87
62476;DHT22;50739;45.670;11.936;2022-08-06T20:31:23;25.76;72.41
62476;DHT22;50739;45.670;11.936;2022-08-06T20:36:28;25.70;72.74
62476;DHT22;50739;45.670;11.936;2022-08-06T20:41:30;25.76;71.15
62476;DHT22;50739;45.670;11.936;2022-08-06T20:46:33;25.77;70.32
62476;DHT22;50739;45.670;11.936;2022-08-06T20:51:37;25.80;69.67
62476;DHT22;50739;45.670;11.936;2022-08-06T20:56:40;25.50;72.28
62476;DHT22;50739;45.670;11.936;2022-08-06T21:01:42;25.56;69.23
62476;DHT22;50739;45.670;11.936;2022-08-06T21:06:45;25.50;69.83
62476;DHT22;50739;45.670;11.936;2022-08-06T21:11:47;25.18;70.61
62476;DHT22;50739;45.670;11.936;2022-08-06T21:16:49;24.80;68.19
62476;DHT22;50739;45.670;11.936;2022-08-06T21:21:52;24.95;72.47
62476;DHT22;50739;45.670;11.936;2022-08-06T21:26:54;24.76;72.65
62476;DHT22;50739;45.670;11.936;2022-08-06T21:31:56;24.69;72.42
62476;DHT22;50739;45.670;11.936;2022-08-06T21:37:00;24.67;73.09
62476;DHT22;50739;45.670;11.936;2022-08-06T21:42:02;24.74;73.29
62476;DHT22;50739;45.670;11.936;2022-08-06T21:47:07;24.66;74.05
62476;DHT22;50739;45.670;11.936;2022-08-06T21:52:10;24.64;74.02
62476;DHT22;50739;45.670;11.936;2022-08-06T21:57:12;24.57;74.53
62476;DHT22;50739;45.670;11.936;2022-08-06T22:02:13;24.64;74.08
62476;DHT22;50739;45.670;11.936;2022-08-06T22:07:18;24.60;74.35
62476;DHT22;50739;45.670;11.936;2022-08-06T22:12:20;24.46;75.01
62476;DHT22;50739;45.670;11.936;2022-08-06T22:17:21;24.48;75.19
62476;DHT22;50739;45.670;11.936;2022-08-06T22:22:24;24.33;76.10
62476;DHT22;50739;45.670;11.936;2022-08-06T22:27:26;24.23;76.27
62476;DHT22;50739;45.670;11.936;2022-08-06T22:32:28;24.19;75.67
62476;DHT22;50739;45.670;11.936;2022-08-06T22:37:31;24.22;75.81
62476;DHT22;50739;45.670;11.936;2022-08-06T22:42:37;24.22;75.41
62476;DHT22;50739;45.670;11.936;2022-08-06T22:47:39;24.11;75.49
62476;DHT22;50739;45.670;11.936;2022-08-06T22:52:42;24.28;74.35
62476;DHT22;50739;45.670;11.936;2022-08-06T22:57:44;24.48;72.76
62476;DHT22;50739;45.670;11.936;2022-08-06T23:02:47;24.52;72.56
62476;DHT22;50739;45.670;11.936;2022-08-06T23:07:50;24.55;71.70
62476;DHT22;50739;45.670;11.936;2022-08-06T23:12:52;24.53;70.58
62476;DHT22;50739;45.670;11.936;2022-08-06T23:17:54;24.56;70.91
62476;DHT22;50739;45.670;11.936;2022-08-06T23:22:57;24.40;72.36
62476;DHT22;50739;45.670;11.936;2022-08-06T23:27:59;24.42;72.65
62476;DHT22;50739;45.670;11.936;2022-08-06T23:33:01;24.40;72.62
62476;DHT22;50739;45.670;11.936;2022-08-06T23:38:04;24.35;72.65
62476;DHT22;50739;45.670;11.936;2022-08-06T23:43:06;24.16;73.33
62476;DHT22;50739;45.670;11.936;2022-08-06T23:48:08;24.22;73.84
62476;DHT22;50739;45.670;11.936;2022-08-06T23:53:11;24.35;73.14
62476;DHT22;50739;45.670;11.936;2022-08-06T23:58:13;24.21;73.50
